Time;durP1;ratioP1;P1;durP2;ratioP2;P2;SDS_P1;SDS_P2;PMS_P1;PMS_P2;Temp;Humidity;BMP_temperature;BMP_pressure;BME280_temperature;BME280_humidity;BME280_pressure;Samples;Min_cycle;Max_cycle;Signal;HPM_P1;HPM_P2
2022/12/24 00:01:36;;;;;;;35.17;19.17;;;5.50;99.90;;;5.36;66.27;94824.28;5084267;28;20495;-56
2022/12/24 00:04:03;;;;;;;41.23;21.03;;;5.50;99.90;;;5.36;65.92;94824.28;5086506;28;20458;-57
2022/12/24 00:06:30;;;;;;;42.20;20.20;;;5.50;99.90;;;5.33;66.70;94832.34;5081065;28;20914;-55
2022/12/24 00:08:57;;;;;;;44.33;19.97;;;5.50;99.90;;;5.32;66.85;94829.84;5076037;28;20508;-56
2022/12/24 00:11:25;;;;;;;34.90;19.50;;;5.50;99.90;;;5.30;66.75;94832.56;5077880;28;21074;-55
2022/12/24 00:13:53;;;;;;;45.97;21.27;;;5.40;99.90;;;5.30;66.96;94832.56;5078654;28;20458;-55
2022/12/24 00:16:20;;;;;;;42.33;21.50;;;5.40;99.90;;;5.29;66.51;94840.50;5081126;28;20473;-57
2022/12/24 00:18:48;;;;;;;40.63;20.50;;;5.40;99.90;;;5.27;66.70;94832.78;5075621;28;21084;-54
2022/12/24 00:21:15;;;;;;;44.73;21.80;;;5.40;99.90;;;5.23;66.47;94831.31;5077281;28;20474;-56
2022/12/24 00:23:42;;;;;;;42.40;20.23;;;5.40;99.90;;;5.17;66.50;94826.53;5074482;28;20941;-56
2022/12/24 00:26:10;;;;;;;41.77;20.53;;;5.30;99.90;;;5.17;66.46;94831.75;5077585;28;20490;-57
2022/12/24 00:28:37;;;;;;;36.90;20.73;;;5.30;99.90;;;5.14;66.47;94831.97;5082875;28;20451;-54
2022/12/24 00:31:10;;;;;;;40.43;20.60;;;5.30;99.90;;;5.10;66.45;94828.75;5082337;28;20843;-56
2022/12/24 00:33:38;;;;;;;38.47;19.60;;;5.20;99.90;;;5.07;66.25;94825.53;5078791;28;20477;-56
2022/12/24 00:36:06;;;;;;;57.23;20.73;;;5.20;99.90;;;5.01;66.43;94826.78;5080017;28;20560;-53
2022/12/24 00:38:33;;;;;;;45.47;21.30;;;5.20;99.90;;;4.97;66.39;94826.16;5079847;28;20450;-58
2022/12/24 00:41:00;;;;;;;42.07;19.70;;;5.20;99.90;;;4.94;66.27;94828.13;5087089;28;20546;-54
2022/12/24 00:43:28;;;;;;;38.77;20.93;;;5.10;99.90;;;4.90;66.31;94827.53;5080197;28;20540;-57
2022/12/24 00:45:57;;;;;;;70.03;32.53;;;5.10;99.90;;;4.89;66.65;94833.66;5078622;28;20486;-56
2022/12/24 00:48:26;;;;;;;80.27;36.83;;;5.00;99.90;;;4.85;67.14;94830.44;5080524;28;20831;-57
2022/12/24 00:50:53;;;;;;;72.57;33.07;;;5.00;99.90;;;4.83;67.05;94839.31;5077074;28;20543;-61
2022/12/24 00:53:20;;;;;;;80.37;37.10;;;5.00;99.90;;;4.82;66.90;94837.66;5083244;28;20939;-55
2022/12/24 00:55:47;;;;;;;75.13;36.30;;;5.00;99.90;;;4.78;66.90;94833.59;5084186;28;20480;-57
2022/12/24 00:58:14;;;;;;;72.63;32.73;;;5.00;99.90;;;4.78;67.00;94838.78;5076866;28;20837;-56
2022/12/24 01:00:42;;;;;;;74.03;31.30;;;4.90;99.90;;;4.75;66.84;94845.03;5073751;28;21107;-57
2022/12/24 01:03:09;;;;;;;66.87;30.77;;;4.90;99.90;;;4.72;66.72;94836.63;5072927;28;20462;-56
2022/12/24 01:05:37;;;;;;;61.23;30.30;;;4.90;99.90;;;4.69;67.09;94840.25;5075320;28;20494;-56
2022/12/24 01:08:04;;;;;;;58.43;28.10;;;4.90;99.90;;;4.65;66.33;94837.03;5078135;28;20998;-57
2022/12/24 01:10:31;;;;;;;55.33;28.17;;;4.80;99.90;;;4.64;66.83;94852.75;5077473;28;20532;-55
2022/12/24 01:13:01;;;;;;;53.27;26.73;;;4.80;99.90;;;4.62;66.88;94850.25;5077786;28;20481;-56
2022/12/24 01:15:28;;;;;;;49.03;25.13;;;4.80;99.90;;;4.61;66.86;94859.00;5080361;28;20470;-54
2022/12/24 01:17:57;;;;;;;47.20;24.63;;;4.80;99.90;;;4.57;66.89;94854.09;5078591;28;20455;-53
2022/12/24 01:20:25;;;;;;;46.60;24.50;;;4.70;99.90;;;4.52;67.07;94841.41;5077197;28;20488;-56
2022/12/24 01:22:54;;;;;;;47.13;23.90;;;4.70;99.90;;;4.49;67.13;94839.00;5079051;28;20485;-56
2022/12/24 01:25:21;;;;;;;41.20;24.27;;;4.70;99.90;;;4.46;67.32;94826.19;5077421;28;20506;-56
2022/12/24 01:27:49;;;;;;;44.47;23.50;;;4.60;99.90;;;4.45;67.17;94827.13;5077496;28;21019;-56
2022/12/24 01:30:16;;;;;;;54.00;25.17;;;4.60;99.90;;;4.42;67.33;94841.19;5079971;28;20470;-56
2022/12/24 01:32:43;;;;;;;52.73;25.10;;;4.60;99.90;;;4.43;67.26;94836.81;5082650;28;20465;-53
2022/12/24 01:35:11;;;;;;;48.57;24.33;;;4.60;99.90;;;4.42;67.31;94840.38;5074894;28;20503;-55
2022/12/24 01:37:38;;;;;;;48.17;25.67;;;4.60;99.90;;;4.39;67.11;94844.00;5085998;28;20454;-57
2022/12/24 01:45:49;;;;;;;58.90;28.33;;;4.50;99.90;;;4.31;67.26;94828.91;5076615;28;20538;-54
2022/12/24 01:48:31;;;;;;;59.30;25.67;;;4.50;99.90;;;4.31;67.32;94831.50;5075360;28;20459;-56
2022/12/24 01:51:02;;;;;;;51.27;25.83;;;4.50;99.90;;;4.28;67.54;94834.31;5073104;28;20474;-56
2022/12/24 01:53:29;;;;;;;44.60;24.40;;;4.50;99.90;;;4.27;66.93;94837.84;5079205;28;20454;-56
2022/12/24 01:55:58;;;;;;;48.70;24.87;;;4.50;99.90;;;4.26;67.12;94833.59;5076916;28;20473;-56
2022/12/24 01:58:25;;;;;;;49.00;23.60;;;4.40;99.90;;;4.27;67.42;94837.00;5075009;28;20461;-58
2022/12/24 02:00:52;;;;;;;44.93;24.20;;;4.40;99.90;;;4.25;67.02;94828.47;5078589;28;21005;-55
2022/12/24 02:03:19;;;;;;;51.23;24.60;;;4.40;99.90;;;4.23;67.33;94825.13;5073683;28;20838;-57
2022/12/24 02:05:48;;;;;;;59.63;25.97;;;4.40;99.90;;;4.20;67.11;94820.13;5078890;28;20538;-56
2022/12/24 02:08:15;;;;;;;55.20;27.10;;;4.40;99.90;;;4.17;67.32;94823.78;5076385;28;20602;-56
2022/12/24 02:10:43;;;;;;;78.13;31.80;;;4.40;99.90;;;4.16;67.50;94819.50;5077434;28;20507;-54
2022/12/24 02:13:11;;;;;;;51.27;25.90;;;4.30;99.90;;;4.17;67.86;94815.97;5075536;28;20462;-54
2022/12/24 02:15:49;;;;;;;47.83;23.73;;;4.30;99.90;;;4.18;67.58;94822.81;5074981;28;20566;-53
2022/12/24 02:18:21;;;;;;;54.00;26.47;;;4.40;99.90;;;4.18;67.63;94828.03;5074614;28;20450;-55
2022/12/24 02:21:36;;;;;;;50.03;22.97;;;4.40;99.90;;;4.19;67.67;94829.72;5078755;28;20489;-56
2022/12/24 02:24:43;;;;;;;39.73;19.27;;;4.40;99.90;;;4.22;67.96;94826.91;5075058;28;20999;-57
2022/12/24 02:27:17;;;;;;;31.00;18.63;;;4.40;99.90;;;4.22;68.25;94824.31;5080032;28;20958;-56
2022/12/24 02:30:15;;;;;;;41.43;19.90;;;4.40;99.90;;;4.25;68.21;94831.91;5073139;28;20616;-56
2022/12/24 02:33:11;;;;;;;39.53;16.57;;;4.40;99.90;;;4.28;68.17;94838.69;5077678;28;20477;-56
2022/12/24 02:35:44;;;;;;;31.83;17.07;;;4.40;99.90;;;4.27;68.34;94827.41;5075823;28;20554;-56
2022/12/24 02:38:15;;;;;;;35.63;18.77;;;4.40;99.90;;;4.28;68.09;94825.66;5079667;28;20538;-56
2022/12/24 02:40:46;;;;;;;29.83;17.33;;;4.50;99.90;;;4.27;68.16;94832.63;5075799;28;20484;-54
2022/12/24 02:43:17;;;;;;;29.53;17.10;;;4.40;99.90;;;4.28;68.70;94826.50;5078632;28;20458;-55
2022/12/24 02:45:48;;;;;;;35.73;18.83;;;4.50;99.90;;;4.30;68.38;94823.78;5073655;28;20546;-56
2022/12/24 02:48:15;;;;;;;36.87;19.47;;;4.50;99.90;;;4.30;67.72;94813.38;5077229;28;20757;-57
2022/12/24 02:50:59;;;;;;;39.90;20.50;;;4.50;99.90;;;4.28;67.82;94808.28;5078432;28;20487;-56
2022/12/24 02:53:26;;;;;;;49.13;20.50;;;4.50;99.90;;;4.26;67.49;94810.16;5077856;28;20451;-56
2022/12/24 02:56:23;;;;;;;39.67;21.67;;;4.40;99.90;;;4.25;67.57;94808.47;5071821;28;20479;-57
2022/12/24 02:59:05;;;;;;;38.73;20.77;;;4.40;99.90;;;4.22;67.74;94813.06;5072122;28;20496;-56
2022/12/24 03:01:41;;;;;;;42.03;20.13;;;4.40;99.90;;;4.21;67.42;94800.97;5073450;28;20473;-57
2022/12/24 03:04:15;;;;;;;41.03;21.27;;;4.40;99.90;;;4.18;67.37;94804.59;5081913;28;20449;-56
2022/12/24 03:06:47;;;;;;;41.97;21.57;;;4.40;99.90;;;4.15;67.29;94801.38;5084894;28;21094;-56
2022/12/24 03:09:20;;;;;;;52.53;25.43;;;4.30;99.90;;;4.11;67.43;94811.19;5079252;28;20454;-56
2022/12/24 03:11:53;;;;;;;39.63;21.50;;;4.30;99.90;;;4.09;67.74;94803.47;5079407;28;20462;-56
2022/12/24 03:14:20;;;;;;;43.93;24.80;;;4.30;99.90;;;4.04;67.74;94799.50;5082445;28;20873;-55
2022/12/24 03:16:49;;;;;;;51.10;25.37;;;4.20;99.90;;;3.98;67.55;94805.09;5084393;28;20517;-54
2022/12/24 03:19:16;;;;;;;49.63;26.00;;;4.20;99.90;;;3.86;67.53;94797.19;5087887;28;20458;-56
2022/12/24 03:21:45;;;;;;;59.83;28.80;;;4.10;99.90;;;3.83;67.28;94805.19;5083682;28;20512;-54
2022/12/24 03:24:12;;;;;;;59.50;28.77;;;4.10;99.90;;;3.75;67.57;94797.88;5087239;28;20446;-54
2022/12/24 03:26:39;;;;;;;57.33;25.37;;;4.00;99.90;;;3.73;67.92;94802.38;5086484;28;20935;-55
2022/12/24 03:29:07;;;;;;;56.37;29.27;;;4.00;99.90;;;3.72;67.84;94807.66;5080247;28;20965;-56
2022/12/24 03:31:42;;;;;;;59.53;26.63;;;3.90;99.90;;;3.71;67.54;94806.00;5084092;28;20911;-56
2022/12/24 03:34:11;;;;;;;50.83;27.10;;;3.90;99.90;;;3.69;67.74;94802.66;5081053;28;20458;-55
2022/12/24 03:36:39;;;;;;;57.37;27.07;;;3.90;99.90;;;3.66;67.87;94805.47;5080514;28;20480;-55
2022/12/24 03:39:06;;;;;;;44.10;25.07;;;3.90;99.90;;;3.64;67.44;94802.09;5083823;28;20898;-56
2022/12/24 03:41:33;;;;;;;55.53;27.93;;;3.80;99.90;;;3.61;67.15;94817.91;5085193;28;20474;-57
2022/12/24 03:44:01;;;;;;;51.97;24.87;;;3.80;99.90;;;3.58;67.33;94819.78;5078855;28;20511;-56
2022/12/24 03:46:28;;;;;;;51.27;24.30;;;3.80;99.90;;;3.57;68.09;94822.50;5079817;28;20566;-57
2022/12/24 03:48:55;;;;;;;47.17;22.80;;;3.80;99.90;;;3.57;68.01;94812.91;5079484;28;20543;-56
2022/12/24 03:51:25;;;;;;;46.80;24.13;;;3.80;99.90;;;3.57;67.79;94819.88;5075854;28;20474;-57
2022/12/24 03:53:52;;;;;;;43.63;22.33;;;3.80;99.90;;;3.57;68.25;94819.88;5079493;28;20450;-57
2022/12/24 03:56:20;;;;;;;43.50;22.60;;;3.80;99.90;;;3.57;67.65;94828.50;5082106;28;20477;-56
2022/12/24 03:58:47;;;;;;;47.33;23.00;;;3.80;99.90;;;3.58;68.06;94825.00;5083255;28;20931;-56
2022/12/24 04:01:15;;;;;;;47.00;24.00;;;3.80;99.90;;;3.57;67.78;94827.69;5080636;28;20482;-56
2022/12/24 04:03:42;;;;;;;46.27;24.77;;;3.80;99.90;;;3.56;67.29;94831.22;5072609;28;20459;-56
2022/12/24 04:06:10;;;;;;;42.10;22.07;;;3.80;99.90;;;3.54;67.70;94827.88;5080751;28;20550;-58
2022/12/24 04:08:39;;;;;;;38.93;21.73;;;3.80;99.90;;;3.52;68.07;94838.38;5079144;28;20474;-56
2022/12/24 04:11:07;;;;;;;40.83;22.63;;;3.80;99.90;;;3.51;67.97;94841.91;5079601;28;20564;-56
2022/12/24 04:13:35;;;;;;;36.43;22.53;;;3.70;99.90;;;3.49;67.39;94841.19;5075298;28;20450;-55
2022/12/24 04:16:03;;;;;;;32.13;19.80;;;3.70;99.90;;;3.47;67.50;94840.44;5082644;28;20837;-56
2022/12/24 04:18:30;;;;;;;37.77;23.83;;;3.70;99.90;;;3.46;67.50;94841.38;5078808;28;20455;-56
2022/12/24 04:20:57;;;;;;;40.63;22.63;;;3.70;99.90;;;3.45;67.48;94838.88;5079176;28;20543;-57
2022/12/24 04:23:25;;;;;;;38.27;21.77;;;3.70;99.90;;;3.46;67.92;94846.56;5076389;28;20463;-54
2022/12/24 04:25:53;;;;;;;41.00;22.93;;;3.70;99.90;;;3.46;67.44;94846.56;5083552;28;20553;-56
2022/12/24 04:28:21;;;;;;;40.70;23.47;;;3.70;99.90;;;3.46;67.58;94851.78;5075883;28;20466;-55
2022/12/24 04:30:48;;;;;;;43.97;23.80;;;3.70;99.90;;;3.46;67.24;94856.16;5078511;28;20890;-57
2022/12/24 04:33:15;;;;;;;35.73;21.07;;;3.60;99.90;;;3.47;67.21;94860.41;5077673;28;20515;-55
2022/12/24 04:35:42;;;;;;;51.83;24.70;;;3.70;99.90;;;3.45;67.75;94862.28;5082133;28;20918;-56
2022/12/24 04:38:10;;;;;;;41.10;22.70;;;3.70;99.90;;;3.44;68.32;94861.44;5077961;28;20451;-54
2022/12/24 04:40:37;;;;;;;48.17;22.30;;;3.70;99.90;;;3.44;67.83;94864.03;5087502;28;20478;-55
2022/12/24 04:43:06;;;;;;;42.80;21.40;;;3.70;99.90;;;3.46;68.39;94861.34;5076496;28;20932;-56
2022/12/24 04:45:33;;;;;;;43.47;22.10;;;3.70;99.90;;;3.47;67.96;94850.84;5081254;28;20570;-56
2022/12/24 04:48:00;;;;;;;36.93;19.77;;;3.70;99.90;;;3.48;68.43;94847.31;5078444;28;20466;-59
2022/12/24 04:50:27;;;;;;;32.13;19.27;;;3.70;99.90;;;3.49;67.58;94851.56;5075378;28;20516;-57
2022/12/24 04:52:55;;;;;;;33.80;20.10;;;3.70;99.90;;;3.49;68.42;94848.97;5082481;28;21001;-55
2022/12/24 04:55:22;;;;;;;35.47;20.40;;;3.70;99.90;;;3.50;68.11;94845.47;5075387;28;20543;-56
2022/12/24 04:57:49;;;;;;;36.00;20.10;;;3.70;99.90;;;3.53;68.30;94847.00;5078576;28;20458;-57
2022/12/24 05:00:18;;;;;;;39.20;20.53;;;3.70;99.90;;;3.53;67.73;94850.47;5078654;28;20482;-57
2022/12/24 05:02:45;;;;;;;40.83;21.03;;;3.70;99.90;;;3.55;67.66;94845.16;5074938;28;21037;-56
2022/12/24 05:05:13;;;;;;;36.30;22.10;;;3.70;99.90;;;3.55;67.78;94843.38;5084256;28;20482;-57
2022/12/24 05:07:40;;;;;;;34.77;19.80;;;3.80;99.90;;;3.56;68.04;94844.22;5075875;28;20490;-54
2022/12/24 05:10:09;;;;;;;41.43;19.43;;;3.80;99.90;;;3.57;68.03;94841.50;5083323;28;20486;-56
2022/12/24 05:12:37;;;;;;;35.30;19.07;;;3.80;99.90;;;3.58;68.15;94829.38;5076884;28;20465;-57
2022/12/24 05:15:05;;;;;;;29.77;18.10;;;3.80;99.90;;;3.57;68.48;94828.50;5077316;28;20476;-56
2022/12/24 05:17:33;;;;;;;36.67;20.87;;;3.80;99.90;;;3.56;68.26;94824.25;5078867;28;20511;-56
2022/12/24 05:20:01;;;;;;;57.07;31.27;;;3.80;99.90;;;3.56;67.88;94824.25;5077255;28;20470;-57
2022/12/24 05:27:57;;;;;;;84.00;41.93;;;3.70;99.90;;;3.48;68.02;94833.47;5076910;28;20704;-56
2022/12/24 05:30:24;;;;;;;71.13;38.00;;;3.70;99.90;;;3.45;67.05;94841.47;5081519;28;20481;-56
2022/12/24 05:32:53;;;;;;;81.13;35.37;;;3.70;99.90;;;3.43;67.89;94841.56;5076071;28;20522;-56
2022/12/24 05:35:20;;;;;;;63.20;32.37;;;3.60;99.90;;;3.37;67.72;94839.34;5073851;28;20483;-61
2022/12/24 05:37:48;;;;;;;63.80;33.83;;;3.60;99.90;;;3.32;67.71;94844.03;5078289;28;20469;-57
2022/12/24 05:40:15;;;;;;;66.70;35.73;;;3.60;99.90;;;3.26;66.94;94831.41;5075553;28;20474;-56
2022/12/24 05:42:42;;;;;;;77.10;34.77;;;3.50;99.90;;;3.21;67.33;94826.50;5077584;28;20466;-56
2022/12/24 05:45:10;;;;;;;79.20;35.20;;;3.40;99.90;;;3.17;67.57;94830.22;5076333;28;20853;-56
2022/12/24 05:47:38;;;;;;;73.47;36.17;;;3.40;99.90;;;3.14;67.69;94826.03;5076848;28;20498;-56
2022/12/24 05:50:08;;;;;;;78.83;36.87;;;3.40;99.90;;;3.13;67.69;94815.72;5077763;28;20904;-56
2022/12/24 05:52:35;;;;;;;96.43;42.40;;;3.40;99.90;;;3.13;68.53;94821.78;5071992;28;20450;-58
2022/12/24 05:55:03;;;;;;;80.77;37.37;;;3.40;99.90;;;3.13;68.30;94821.78;5076420;28;21033;-56
2022/12/24 05:57:30;;;;;;;84.20;36.70;;;3.40;99.90;;;3.14;68.39;94831.22;5073161;28;20566;-54
2022/12/24 05:59:57;;;;;;;67.13;29.33;;;3.30;99.90;;;3.17;67.84;94832.81;5077990;28;20482;-56
2022/12/24 06:02:24;;;;;;;62.33;30.30;;;3.40;99.90;;;3.21;68.32;94829.09;5077786;28;20446;-56
2022/12/24 06:04:52;;;;;;;66.40;32.80;;;3.40;99.90;;;3.27;68.67;94831.31;5078315;28;20482;-56
2022/12/24 06:07:20;;;;;;;72.83;33.73;;;3.50;99.90;;;3.33;68.04;94843.06;5079059;28;20481;-56
2022/12/24 06:09:48;;;;;;;74.63;35.67;;;3.50;99.90;;;3.39;68.56;94848.72;5074110;28;21074;-56
2022/12/24 06:12:15;;;;;;;64.53;33.30;;;3.60;99.90;;;3.45;68.13;94838.88;5077565;28;20703;-57
2022/12/24 06:14:42;;;;;;;65.43;33.83;;;3.60;99.90;;;3.50;68.02;94842.84;5080907;28;20497;-56
2022/12/24 06:17:09;;;;;;;69.33;33.50;;;3.70;99.90;;;3.59;68.38;94847.47;5074225;28;20447;-56
2022/12/24 06:19:37;;;;;;;68.03;31.93;;;3.70;99.90;;;3.77;67.93;94847.22;5073967;28;21009;-57
2022/12/24 06:22:04;;;;;;;77.47;33.60;;;3.90;99.90;;;4.04;67.80;94851.53;5072264;28;20894;-57
2022/12/24 06:24:32;;;;;;;63.47;33.77;;;4.20;99.90;;;4.35;67.08;94842.53;5073472;28;21035;-57
2022/12/24 06:27:00;;;;;;;64.67;33.83;;;4.50;99.90;;;4.72;66.85;94847.03;5075126;28;20490;-57
2022/12/24 06:29:27;;;;;;;58.80;31.80;;;4.90;99.90;;;5.17;66.01;94842.19;5078090;28;20522;-56
2022/12/24 06:31:54;;;;;;;65.33;32.60;;;5.30;99.90;;;5.64;65.29;94842.34;5075255;28;20461;-55
2022/12/24 06:34:22;;;;;;;94.27;34.43;;;5.80;99.90;;;5.98;63.79;94846.00;5073093;28;20474;-56
2022/12/24 06:36:49;;;;;;;66.73;32.53;;;6.20;99.80;;;6.12;63.16;94857.19;5078198;28;20837;-56
2022/12/24 06:39:16;;;;;;;74.27;31.80;;;6.40;98.90;;;6.01;62.26;94853.59;5080345;28;20990;-54
2022/12/24 06:41:45;;;;;;;63.03;32.90;;;6.30;98.10;;;5.82;62.32;94861.88;5078265;28;20499;-57
2022/12/24 06:44:12;;;;;;;68.43;34.17;;;6.20;98.10;;;5.62;62.77;94871.16;5069286;28;20966;-56
2022/12/24 06:46:39;;;;;;;75.87;35.23;;;5.90;98.20;;;5.45;63.12;94867.13;5080480;28;20489;-57
2022/12/24 06:49:07;;;;;;;59.80;32.97;;;5.70;98.30;;;5.32;63.53;94863.75;5074879;28;20469;-57
2022/12/24 06:51:34;;;;;;;64.47;33.20;;;5.60;98.70;;;5.24;63.74;94866.06;5071716;28;20475;-56
2022/12/24 06:54:01;;;;;;;60.03;33.43;;;5.50;99.00;;;5.24;64.02;94879.09;5079329;28;20980;-57
2022/12/24 06:56:29;;;;;;;71.23;33.60;;;5.40;99.20;;;5.43;64.37;94874.25;5076875;28;20470;-57
2022/12/24 06:58:57;;;;;;;70.73;33.07;;;5.60;99.70;;;5.90;64.33;94866.56;5077651;28;21034;-56
2022/12/24 07:01:24;;;;;;;66.70;34.07;;;6.00;99.90;;;6.56;63.22;94866.13;5077903;28;20539;-58
2022/12/24 07:03:52;;;;;;;71.23;34.37;;;6.50;99.80;;;7.20;62.23;94867.38;5075410;28;20511;-56
2022/12/24 07:06:21;;;;;;;74.73;34.97;;;7.20;99.10;;;7.89;61.91;94870.59;5078694;28;20470;-55
2022/12/24 07:08:49;;;;;;;80.83;38.03;;;7.90;98.90;;;8.66;60.35;94867.91;5075761;28;20521;-56
2022/12/24 07:11:16;;;;;;;79.00;34.43;;;8.70;97.90;;;9.41;58.64;94863.31;5074312;28;20477;-56
2022/12/24 07:13:43;;;;;;;69.53;36.90;;;9.40;96.70;;;10.08;57.65;94861.78;5074548;28;20463;-56
2022/12/24 07:16:12;;;;;;;80.57;39.50;;;10.20;95.00;;;10.44;56.15;94864.78;5076759;28;21017;-54
2022/12/24 07:18:39;;;;;;;98.23;44.40;;;10.60;93.70;;;10.27;55.64;94858.38;5078045;28;20451;-55
2022/12/24 07:21:07;;;;;;;107.20;44.27;;;10.60;92.60;;;9.88;55.77;94866.19;5080418;28;20820;-56
2022/12/24 07:23:34;;;;;;;93.73;46.23;;;10.30;92.00;;;9.42;55.57;94864.97;5075724;28;20539;-55
2022/12/24 07:26:02;;;;;;;101.23;48.13;;;9.90;92.30;;;9.00;56.38;94865.91;5076065;28;20481;-55
2022/12/24 07:28:29;;;;;;;100.60;47.57;;;9.50;92.60;;;8.61;57.26;94869.13;5077121;28;20548;-54
2022/12/24 07:30:57;;;;;;;112.73;45.20;;;9.00;93.00;;;8.29;57.47;94873.53;5078893;28;20882;-56
2022/12/24 07:33:25;;;;;;;104.33;48.03;;;8.70;93.60;;;8.06;58.61;94878.88;5075648;28;20527;-56
2022/12/24 07:36:00;;;;;;;104.57;48.30;;;8.30;94.20;;;7.89;59.21;94885.47;5075114;28;20551;-57
2022/12/24 07:38:27;;;;;;;97.67;47.60;;;8.10;94.70;;;7.81;59.41;94875.63;5075349;28;20460;-57
2022/12/24 07:40:54;;;;;;;89.37;43.00;;;8.00;95.20;;;7.82;59.29;94881.66;5075933;28;20858;-56
2022/12/24 07:43:21;;;;;;;92.03;42.60;;;7.90;95.40;;;7.84;59.63;94882.41;5079453;28;20454;-55
2022/12/24 07:45:49;;;;;;;104.80;44.93;;;7.90;95.60;;;7.86;59.59;94886.53;5073074;28;20481;-56
2022/12/24 07:48:16;;;;;;;107.50;45.40;;;8.00;95.90;;;7.88;59.89;94889.88;5081856;28;21042;-57
2022/12/24 07:50:45;;;;;;;91.00;47.50;;;8.00;95.90;;;7.91;59.24;94886.16;5076691;28;21040;-56
2022/12/24 07:53:12;;;;;;;104.57;46.20;;;8.00;96.00;;;8.03;59.72;94887.81;5081952;28;20974;-57
2022/12/24 07:55:39;;;;;;;110.87;49.60;;;8.10;96.10;;;8.14;59.63;94896.59;5079951;28;20547;-57
2022/12/24 07:58:06;;;;;;;112.03;53.10;;;8.20;96.00;;;8.36;59.31;94898.28;5075838;28;20537;-57
2022/12/24 08:00:34;;;;;;;111.37;53.33;;;8.40;96.20;;;8.57;58.97;94900.97;5082856;28;20482;-54
2022/12/24 08:03:01;;;;;;;114.57;54.50;;;8.50;95.80;;;8.64;57.84;94906.53;5078757;28;21022;-56
2022/12/24 08:05:28;;;;;;;105.07;50.37;;;8.60;95.10;;;8.59;58.68;94905.13;5078872;28;20475;-54
2022/12/24 08:07:57;;;;;;;123.03;52.13;;;8.70;95.30;;;8.57;58.89;94907.03;5078909;28;20854;-55
2022/12/24 08:10:25;;;;;;;102.93;46.93;;;8.60;95.50;;;8.56;58.62;94910.63;5072100;28;20514;-57
2022/12/24 08:12:52;;;;;;;93.87;45.43;;;8.60;95.40;;;8.54;58.49;94912.53;5075799;28;20473;-56
2022/12/24 08:15:19;;;;;;;84.73;38.83;;;8.60;95.50;;;8.52;58.95;94913.63;5080312;28;20550;-57
2022/12/24 08:17:47;;;;;;;85.00;41.23;;;8.50;95.50;;;8.49;58.47;94904.22;5075639;28;20528;-55
2022/12/24 08:20:14;;;;;;;74.27;38.60;;;8.50;95.50;;;8.47;59.00;94905.31;5080036;28;20527;-55
2022/12/24 08:22:42;;;;;;;103.67;47.47;;;8.50;95.50;;;8.41;58.81;94902.22;5071789;28;20547;-57
2022/12/24 08:25:11;;;;;;;105.80;47.57;;;8.50;95.50;;;8.31;59.18;94895.22;5079361;28;20862;-57
2022/12/24 08:27:38;;;;;;;109.57;49.00;;;8.40;95.40;;;8.22;59.41;94905.47;5078031;28;20493;-59
2022/12/24 08:30:07;;;;;;;111.43;50.63;;;8.30;95.50;;;8.16;59.45;94902.53;5078716;28;20482;-58
2022/12/24 08:32:34;;;;;;;108.73;54.33;;;8.20;95.50;;;8.09;59.23;94896.97;5074582;28;20550;-57
2022/12/24 08:35:02;;;;;;;138.67;57.50;;;8.20;95.70;;;7.99;59.63;94888.19;5077262;28;20895;-59
2022/12/24 08:37:29;;;;;;;126.67;56.80;;;8.10;95.70;;;7.85;60.04;94895.38;5074475;28;20519;-56
2022/12/24 08:39:56;;;;;;;112.37;52.73;;;8.00;95.80;;;7.76;59.97;94897.88;5081750;28;20482;-57
2022/12/24 08:42:25;;;;;;;133.40;57.97;;;7.90;96.10;;;7.68;60.01;94891.47;5082111;28;20999;-60
2022/12/24 08:44:52;;;;;;;117.90;56.43;;;7.80;96.00;;;7.62;60.22;94909.44;5083849;28;20522;-60
2022/12/24 08:47:19;;;;;;;122.60;56.87;;;7.70;96.30;;;7.59;60.51;94914.91;5076689;28;20501;-58
2022/12/24 08:49:46;;;;;;;109.60;55.10;;;7.70;96.70;;;7.58;60.35;94913.25;5079896;28;20492;-54
2022/12/24 08:52:14;;;;;;;92.23;47.47;;;7.60;96.60;;;7.56;60.60;94909.91;5074100;28;20962;-60
2022/12/24 08:54:41;;;;;;;91.13;47.43;;;7.60;96.60;;;7.55;60.93;94903.84;5078949;28;20720;-60
2022/12/24 08:57:08;;;;;;;85.77;45.43;;;7.60;96.90;;;7.54;61.35;94905.66;5076167;28;20462;-55
2022/12/24 08:59:37;;;;;;;91.70;42.27;;;7.60;96.90;;;7.56;60.84;94902.91;5076259;28;20517;-59
2022/12/24 09:02:04;;;;;;;83.67;41.70;;;7.60;97.00;;;7.56;61.54;94904.69;5078178;28;20756;-59
2022/12/24 09:04:31;;;;;;;72.73;39.03;;;7.60;97.20;;;7.57;61.13;94893.28;5074017;28;21010;-56
2022/12/24 09:06:59;;;;;;;67.73;37.90;;;7.60;97.30;;;7.59;61.50;94893.97;5076880;28;21055;-55
2022/12/24 09:09:27;;;;;;;75.03;40.00;;;7.70;97.50;;;7.63;61.72;94901.47;5077673;28;20954;-56
2022/12/24 09:11:55;;;;;;;73.63;38.93;;;7.70;97.50;;;7.67;61.52;94908.13;5076692;28;20458;-59
2022/12/24 09:14:22;;;;;;;79.37;42.63;;;7.70;97.50;;;7.73;61.40;94914.66;5085789;28;20453;-59
2022/12/24 09:16:50;;;;;;;82.20;45.13;;;7.80;97.50;;;7.77;60.95;94908.22;5084336;28;20483;-56
2022/12/24 09:19:18;;;;;;;87.27;47.00;;;7.80;97.50;;;7.79;60.94;94900.25;5081704;28;20462;-55
2022/12/24 09:21:45;;;;;;;76.00;46.20;;;7.80;97.50;;;7.79;60.94;94897.63;5084836;28;20858;-59
2022/12/24 09:24:12;;;;;;;86.60;45.23;;;7.80;97.40;;;7.82;60.91;94900.00;5085637;28;20450;-58
2022/12/24 09:26:41;;;;;;;79.37;46.30;;;7.90;97.40;;;7.84;60.99;94892.88;5084774;28;20461;-57
2022/12/24 09:29:08;;;;;;;86.07;47.97;;;7.90;97.40;;;7.86;60.62;94902.25;5075791;28;20477;-55
2022/12/24 09:31:35;;;;;;;92.20;48.80;;;7.90;97.20;;;7.83;61.41;94894.66;5076336;28;20535;-59
2022/12/24 09:34:04;;;;;;;66.03;39.40;;;7.90;97.30;;;7.78;61.12;94902.03;5074207;28;20811;-57
2022/12/24 09:36:31;;;;;;;83.27;37.53;;;7.90;97.40;;;7.77;61.19;94897.75;5074843;28;20474;-56
2022/12/24 09:38:58;;;;;;;56.90;33.47;;;7.80;97.40;;;7.78;61.61;94888.13;5076104;28;20446;-57
2022/12/24 09:41:41;;;;;;;64.63;32.70;;;7.80;97.50;;;7.81;61.09;94883.47;5081502;28;20994;-56
2022/12/24 09:44:31;;;;;;;65.90;35.23;;;7.90;97.50;;;7.90;61.52;94874.06;5079114;28;20449;-53
2022/12/24 09:46:59;;;;;;;61.07;29.33;;;7.90;97.40;;;7.96;60.76;94875.31;5078399;28;20959;-59
2022/12/24 09:49:34;;;;;;;57.03;32.57;;;8.00;97.10;;;8.03;60.38;94871.28;5080091;28;20988;-58
2022/12/24 09:52:05;;;;;;;60.43;34.80;;;8.00;97.10;;;8.13;60.75;94876.59;5084190;28;20448;-59
2022/12/24 09:54:34;;;;;;;51.50;32.10;;;8.10;97.10;;;8.20;60.28;94872.53;5081193;28;20478;-55
2022/12/24 09:57:05;;;;;;;64.70;35.23;;;8.20;96.90;;;8.17;60.57;94875.38;5081788;28;20507;-59
2022/12/24 09:59:39;;;;;;;70.07;36.40;;;8.20;96.70;;;8.15;60.20;94890.38;5076316;28;20845;-59
2022/12/24 10:02:10;;;;;;;60.70;36.60;;;8.20;96.70;;;8.15;59.95;94879.91;5079328;28;20450;-55
2022/12/24 10:04:39;;;;;;;63.07;35.90;;;8.20;96.80;;;8.12;60.16;94896.72;5079646;28;20532;-56
2022/12/24 10:07:11;;;;;;;72.60;39.67;;;8.10;96.80;;;8.06;59.54;94902.44;5084582;28;20495;-55
2022/12/24 10:09:42;;;;;;;78.30;41.57;;;8.10;96.40;;;7.97;60.36;94893.53;5073745;28;20485;-58
2022/12/24 10:12:13;;;;;;;72.40;39.80;;;8.00;96.50;;;7.92;60.61;94880.00;5083162;28;20783;-59
2022/12/24 10:14:52;;;;;;;72.90;40.70;;;8.00;96.80;;;7.88;60.17;94874.19;5075558;28;20459;-55
2022/12/24 10:17:41;;;;;;;75.77;42.33;;;7.90;96.70;;;7.89;60.29;94870.59;5075357;28;20469;-59
2022/12/24 10:20:30;;;;;;;85.97;40.80;;;7.90;96.90;;;7.96;60.33;94863.06;5076130;28;20459;-59
2022/12/24 10:23:00;;;;;;;81.60;43.30;;;7.90;96.70;;;8.03;60.77;94871.28;5074520;28;20431;-57
2022/12/24 10:25:30;;;;;;;84.03;44.10;;;8.00;96.80;;;8.10;60.53;94872.41;5075390;28;20465;-56
2022/12/24 10:27:59;;;;;;;84.77;44.07;;;8.10;96.80;;;8.14;61.41;94878.25;5075374;28;20471;-61
2022/12/24 10:30:27;;;;;;;86.23;44.23;;;8.10;97.50;;;8.21;61.17;94880.25;5076896;28;20467;-55
2022/12/24 10:32:55;;;;;;;75.00;43.80;;;8.20;97.70;;;8.32;60.92;94875.91;5073462;28;20450;-55
2022/12/24 10:35:26;;;;;;;85.87;48.47;;;8.30;97.50;;;8.38;60.53;94868.38;5074400;28;20470;-57
2022/12/24 10:37:56;;;;;;;85.40;47.20;;;8.40;97.20;;;8.40;60.50;94861.22;5072545;28;20634;-57